Time;durP1;ratioP1;P1;durP2;ratioP2;P2;SDS_P1;SDS_P2;PMS_P1;PMS_P2;Temp;Humidity;BMP_temperature;BMP_pressure;BME280_temperature;BME280_humidity;BME280_pressure;Samples;Min_cycle;Max_cycle;Signal;HPM_P1;HPM_P2
2023/03/30 00:00:17;;;;;;;2.20;1.92;;;17.60;99.90;;;;;;4994799;28;20291;-65
2023/03/30 00:02:45;;;;;;;1.90;1.70;;;17.60;99.90;;;;;;4995872;28;20272;-63
2023/03/30 00:05:12;;;;;;;2.40;1.70;;;17.60;99.90;;;;;;4996848;28;20236;-63
2023/03/30 00:07:41;;;;;;;2.47;1.70;;;17.50;99.90;;;;;;4994206;28;20604;-64
2023/03/30 00:10:10;;;;;;;2.25;1.80;;;17.60;99.90;;;;;;4988300;28;20221;-65
2023/03/30 00:12:39;;;;;;;2.90;2.00;;;17.60;99.90;;;;;;4992355;28;20206;-65
2023/03/30 00:15:08;;;;;;;2.40;2.20;;;17.60;99.90;;;;;;4991942;28;20233;-64
2023/03/30 00:17:35;;;;;;;2.85;1.80;;;17.50;99.90;;;;;;4992271;28;20218;-65
2023/03/30 00:20:04;;;;;;;1.50;1.40;;;17.50;99.90;;;;;;4992873;28;20233;-65
2023/03/30 00:22:31;;;;;;;3.38;2.22;;;17.50;99.90;;;;;;4993408;28;20869;-67
2023/03/30 00:24:58;;;;;;;1.95;1.75;;;17.50;99.90;;;;;;4992288;28;20232;-65
2023/03/30 00:27:25;;;;;;;1.98;1.50;;;17.50;99.90;;;;;;4992221;28;20560;-65
2023/03/30 00:29:54;;;;;;;2.13;1.88;;;17.40;99.90;;;;;;4992266;28;20594;-66
2023/03/30 00:32:21;;;;;;;1.70;1.60;;;17.40;99.90;;;;;;4992240;28;20217;-65
2023/03/30 00:34:48;;;;;;;2.00;1.80;;;17.40;99.90;;;;;;4992686;28;20671;-64
2023/03/30 00:37:15;;;;;;;3.00;1.77;;;17.40;99.90;;;;;;4992841;28;20215;-64
2023/03/30 00:39:42;;;;;;;2.10;1.77;;;17.40;99.90;;;;;;4992105;28;20273;-65
2023/03/30 00:42:15;;;;;;;2.53;1.75;;;17.40;99.90;;;;;;4992461;28;20232;-65
2023/03/30 00:45:14;;;;;;;2.15;1.92;;;17.40;99.90;;;;;;4992441;28;20234;-64
2023/03/30 00:47:45;;;;;;;1.85;1.63;;;17.20;99.90;;;;;;4994256;28;20216;-65
2023/03/30 00:50:13;;;;;;;2.08;1.88;;;17.10;99.90;;;;;;4995103;28;20254;-65
2023/03/30 00:52:42;;;;;;;2.17;1.80;;;16.90;99.90;;;;;;4993879;28;20292;-64
2023/03/30 00:55:11;;;;;;;2.92;2.15;;;16.80;99.90;;;;;;5009762;28;20808;-65
2023/03/30 00:57:40;;;;;;;2.20;2.00;;;16.60;99.90;;;;;;5011458;28;20229;-65
2023/03/30 01:00:10;;;;;;;1.95;1.50;;;16.50;99.90;;;;;;5011194;28;20220;-64
2023/03/30 01:02:43;;;;;;;1.67;1.58;;;16.40;99.90;;;;;;5012324;28;20214;-65
2023/03/30 01:05:10;;;;;;;2.60;1.80;;;16.50;99.90;;;;;;5010959;28;20289;-64
2023/03/30 01:07:39;;;;;;;2.83;2.20;;;16.30;99.90;;;;;;5010003;28;20202;-66
2023/03/30 01:10:08;;;;;;;2.22;2.00;;;16.40;99.90;;;;;;5003471;28;20214;-65
2023/03/30 01:12:35;;;;;;;1.73;1.63;;;16.40;99.90;;;;;;4995421;28;20599;-66
2023/03/30 01:15:02;;;;;;;2.17;1.95;;;16.40;99.90;;;;;;4994433;28;20353;-66
2023/03/30 01:17:38;;;;;;;1.80;1.60;;;16.30;99.90;;;;;;5003192;28;20202;-66
2023/03/30 01:20:40;;;;;;;1.52;1.40;;;16.40;99.90;;;;;;4991196;28;20664;-66
2023/03/30 01:23:45;;;;;;;2.20;1.80;;;16.30;99.90;;;;;;4993746;28;20264;-66
2023/03/30 01:26:37;;;;;;;1.70;1.60;;;16.30;99.90;;;;;;4987919;28;20298;-66
2023/03/30 01:29:10;;;;;;;2.63;1.95;;;16.20;99.90;;;;;;4995010;28;20214;-66
2023/03/30 01:32:02;;;;;;;2.47;2.08;;;16.20;99.90;;;;;;4994030;28;20691;-65
2023/03/30 01:34:46;;;;;;;2.28;2.08;;;16.00;99.90;;;;;;4993488;28;20269;-65
2023/03/30 01:37:45;;;;;;;2.00;1.80;;;16.00;99.90;;;;;;4993167;28;20232;-64
2023/03/30 01:40:16;;;;;;;2.30;2.10;;;15.90;99.90;;;;;;4992546;28;20217;-65
2023/03/30 01:42:55;;;;;;;3.10;2.00;;;15.80;99.90;;;;;;4992081;28;20230;-67
2023/03/30 01:45:30;;;;;;;2.20;2.00;;;15.70;99.90;;;;;;4994879;28;20233;-65
2023/03/30 01:48:05;;;;;;;2.28;2.08;;;15.60;99.90;;;;;;4995841;28;20244;-66
2023/03/30 01:50:38;;;;;;;1.90;1.70;;;15.60;99.90;;;;;;4997455;28;20256;-65
2023/03/30 01:53:14;;;;;;;2.35;2.15;;;15.50;99.90;;;;;;4995967;28;20209;-65
2023/03/30 01:55:45;;;;;;;1.90;1.63;;;15.50;99.90;;;;;;4995396;28;20311;-66
2023/03/30 01:58:17;;;;;;;2.47;2.20;;;15.40;99.90;;;;;;4995157;28;20309;-66
2023/03/30 02:00:49;;;;;;;2.65;2.00;;;15.40;99.90;;;;;;4994983;28;20210;-66
2023/03/30 02:03:20;;;;;;;2.30;2.08;;;15.30;99.90;;;;;;4995386;28;20210;-66
2023/03/30 02:05:50;;;;;;;2.53;2.23;;;15.20;99.90;;;;;;4995327;28;20230;-65
2023/03/30 02:08:20;;;;;;;3.55;2.50;;;15.10;99.90;;;;;;4995277;28;20313;-65
2023/03/30 02:10:51;;;;;;;2.45;2.25;;;15.00;99.90;;;;;;4994483;28;20206;-66
2023/03/30 02:13:19;;;;;;;3.40;2.30;;;15.00;99.90;;;;;;4994986;28;20226;-66
2023/03/30 02:15:50;;;;;;;2.63;2.42;;;15.00;99.90;;;;;;4995300;28;20332;-65
2023/03/30 02:18:18;;;;;;;3.20;2.42;;;15.00;99.90;;;;;;4996442;28;20217;-65
2023/03/30 02:20:45;;;;;;;2.88;2.22;;;14.90;99.90;;;;;;4998006;28;20210;-64
2023/03/30 02:23:12;;;;;;;2.53;2.20;;;14.90;99.90;;;;;;5008458;28;20202;-65
2023/03/30 02:25:39;;;;;;;2.17;2.05;;;14.90;99.90;;;;;;4995894;28;20230;-67
2023/03/30 02:28:08;;;;;;;3.67;2.38;;;14.90;99.90;;;;;;4994907;28;20287;-66
2023/03/30 02:30:39;;;;;;;2.53;2.00;;;14.90;99.90;;;;;;4994104;28;20236;-66
2023/03/30 02:33:07;;;;;;;2.90;2.47;;;14.80;99.90;;;;;;4996830;28;20208;-66
2023/03/30 02:36:06;;;;;;;3.30;2.85;;;14.80;99.90;;;;;;4994188;28;20236;-66
2023/03/30 02:39:04;;;;;;;2.45;2.25;;;14.90;99.90;;;;;;4994511;28;20209;-65
2023/03/30 02:42:04;;;;;;;3.85;2.13;;;14.90;99.90;;;;;;4994011;28;20226;-65
2023/03/30 02:44:42;;;;;;;2.58;2.03;;;14.90;99.90;;;;;;4938713;28;20216;-66
2023/03/30 02:47:13;;;;;;;2.77;2.27;;;14.80;99.90;;;;;;4994585;28;20214;-65
2023/03/30 02:49:55;;;;;;;3.08;2.42;;;14.70;99.90;;;;;;4993621;28;20293;-65
2023/03/30 02:52:39;;;;;;;2.97;2.20;;;14.80;99.90;;;;;;4993992;28;20228;-65
2023/03/30 02:55:14;;;;;;;3.95;2.72;;;14.90;99.90;;;;;;4993143;28;20237;-65
2023/03/30 02:57:52;;;;;;;2.10;2.00;;;14.90;99.90;;;;;;4993568;28;20214;-65
2023/03/30 03:00:26;;;;;;;2.28;2.05;;;15.00;99.90;;;;;;4993705;28;20694;-65
2023/03/30 03:02:57;;;;;;;2.30;2.00;;;15.00;99.90;;;;;;4993819;28;20251;-66
2023/03/30 03:05:25;;;;;;;3.90;2.60;;;15.00;99.90;;;;;;4994038;28;20252;-66
2023/03/30 03:07:52;;;;;;;2.75;2.50;;;15.00;99.90;;;;;;4993548;28;20232;-65
2023/03/30 03:10:19;;;;;;;2.85;2.28;;;15.00;99.90;;;;;;4992587;28;20297;-65
2023/03/30 03:12:46;;;;;;;2.45;2.25;;;15.00;99.90;;;;;;4992273;28;20202;-66
2023/03/30 03:15:15;;;;;;;3.78;2.30;;;14.90;99.90;;;;;;4992736;28;20221;-65
2023/03/30 03:17:44;;;;;;;4.25;2.40;;;14.90;99.90;;;;;;4992601;28;20225;-65
2023/03/30 03:20:12;;;;;;;3.40;2.10;;;14.90;99.90;;;;;;4992205;28;20209;-66
2023/03/30 03:22:39;;;;;;;2.63;2.42;;;15.00;99.90;;;;;;4992141;28;20735;-65
2023/03/30 03:25:07;;;;;;;2.67;2.47;;;15.00;99.90;;;;;;4992458;28;20230;-65
2023/03/30 03:27:34;;;;;;;2.45;2.25;;;15.00;99.90;;;;;;4992281;28;20266;-65
2023/03/30 03:30:01;;;;;;;4.28;2.78;;;15.10;99.90;;;;;;4991746;28;20217;-65
2023/03/30 03:32:28;;;;;;;3.22;2.40;;;15.10;99.90;;;;;;4992618;28;20301;-65
2023/03/30 03:34:56;;;;;;;3.38;2.00;;;15.10;99.90;;;;;;4992474;28;20225;-65
2023/03/30 03:37:23;;;;;;;3.25;2.30;;;15.10;99.90;;;;;;4993182;28;20202;-65
2023/03/30 03:39:50;;;;;;;2.72;2.50;;;15.20;99.90;;;;;;4991418;28;20216;-66
2023/03/30 03:42:16;;;;;;;3.05;2.42;;;15.20;99.90;;;;;;4993049;28;20222;-66
2023/03/30 03:44:43;;;;;;;2.33;2.13;;;15.10;99.90;;;;;;4993074;28;20755;-65
2023/03/30 03:47:12;;;;;;;2.25;2.05;;;15.10;99.90;;;;;;4995997;28;20217;-66
2023/03/30 03:49:39;;;;;;;2.75;2.28;;;15.10;99.90;;;;;;4997456;28;20288;-66
2023/03/30 03:52:07;;;;;;;2.95;2.40;;;15.20;99.90;;;;;;4997439;28;20710;-65
2023/03/30 03:54:34;;;;;;;3.40;2.25;;;15.20;99.90;;;;;;4996815;28;20213;-67
2023/03/30 03:57:01;;;;;;;2.58;1.95;;;15.20;99.90;;;;;;4994232;28;20241;-66
2023/03/30 03:59:28;;;;;;;2.45;1.90;;;15.10;99.90;;;;;;4992898;28;20206;-65
2023/03/30 04:01:55;;;;;;;2.57;2.10;;;15.10;99.90;;;;;;4993196;28;20225;-66
2023/03/30 04:04:21;;;;;;;4.20;2.42;;;15.00;99.90;;;;;;4995119;28;20435;-66
2023/03/30 04:06:48;;;;;;;3.20;2.33;;;14.90;99.90;;;;;;4998669;28;20212;-66
2023/03/30 04:09:18;;;;;;;3.17;2.40;;;14.90;99.90;;;;;;4999644;28;20216;-65
2023/03/30 04:11:44;;;;;;;3.45;2.30;;;14.80;99.90;;;;;;4997362;28;20284;-65
2023/03/30 04:14:11;;;;;;;2.53;2.10;;;14.70;99.90;;;;;;4997616;28;20240;-66
2023/03/30 04:16:38;;;;;;;2.83;2.13;;;14.80;99.90;;;;;;4993857;28;20260;-66
2023/03/30 04:19:07;;;;;;;2.80;2.40;;;14.70;99.90;;;;;;4992708;28;20221;-65
2023/03/30 04:21:34;;;;;;;2.70;1.95;;;14.60;99.90;;;;;;4995882;28;20305;-66
2023/03/30 04:24:01;;;;;;;3.20;2.20;;;14.60;99.90;;;;;;4991969;28;20202;-66
2023/03/30 04:26:29;;;;;;;2.65;1.88;;;14.60;99.90;;;;;;4992302;28;20603;-66
2023/03/30 04:28:56;;;;;;;2.60;2.25;;;14.60;99.90;;;;;;4992330;28;20209;-65
2023/03/30 04:31:23;;;;;;;2.90;2.42;;;14.60;99.90;;;;;;4989040;28;20215;-66
2023/03/30 04:33:53;;;;;;;4.78;2.40;;;14.60;99.90;;;;;;4985338;28;20285;-66
2023/03/30 04:36:20;;;;;;;2.60;2.10;;;14.60;99.90;;;;;;4991619;28;20246;-65
2023/03/30 04:38:58;;;;;;;2.20;1.88;;;14.60;99.90;;;;;;4992054;28;20296;-65
2023/03/30 04:41:32;;;;;;;2.90;2.17;;;14.50;99.90;;;;;;4991801;28;20209;-67
2023/03/30 04:44:00;;;;;;;2.35;2.00;;;14.50;99.90;;;;;;4984163;28;20219;-65
2023/03/30 04:46:27;;;;;;;2.30;2.00;;;14.50;99.90;;;;;;4972900;28;20231;-65
2023/03/30 04:48:54;;;;;;;2.65;2.22;;;14.50;99.90;;;;;;4983268;28;20274;-64
2023/03/30 04:51:21;;;;;;;3.00;2.50;;;14.50;99.90;;;;;;4980235;28;20625;-65
2023/03/30 04:53:48;;;;;;;3.20;2.10;;;14.50;99.90;;;;;;4972223;28;20213;-66
2023/03/30 04:56:15;;;;;;;2.53;2.20;;;14.60;99.90;;;;;;4972463;28;20234;-65
2023/03/30 04:58:43;;;;;;;4.30;2.22;;;14.60;99.90;;;;;;4972680;28;20217;-64
2023/03/30 05:01:10;;;;;;;2.20;1.90;;;14.60;99.90;;;;;;4990676;28;20202;-64
2023/03/30 05:03:37;;;;;;;2.60;2.15;;;14.50;99.90;;;;;;4991373;28;20226;-63
2023/03/30 05:06:04;;;;;;;2.40;2.20;;;14.50;99.90;;;;;;4991546;28;20240;-64
2023/03/30 05:08:33;;;;;;;2.80;2.13;;;14.50;99.90;;;;;;4992083;28;20210;-64
2023/03/30 05:11:01;;;;;;;3.03;2.60;;;14.60;99.90;;;;;;4991702;28;20822;-64
2023/03/30 05:13:28;;;;;;;2.72;2.15;;;14.60;99.90;;;;;;4991809;28;20233;-64
2023/03/30 05:15:57;;;;;;;2.75;1.90;;;14.70;99.90;;;;;;4991405;28;20618;-64
2023/03/30 05:18:24;;;;;;;2.20;2.00;;;14.70;99.90;;;;;;4994611;28;20205;-64
2023/03/30 05:20:51;;;;;;;2.75;1.90;;;14.80;99.90;;;;;;4994943;28;20212;-65
2023/03/30 05:23:18;;;;;;;3.50;2.53;;;14.80;99.90;;;;;;4991787;28;20229;-63
2023/03/30 05:25:47;;;;;;;2.95;2.53;;;14.80;99.90;;;;;;4994175;28;20324;-65
2023/03/30 05:28:15;;;;;;;2.35;2.10;;;15.00;99.90;;;;;;4993388;28;20846;-64
2023/03/30 05:30:42;;;;;;;2.30;2.10;;;15.10;99.90;;;;;;4993911;28;20221;-65
2023/03/30 05:33:11;;;;;;;2.13;1.92;;;15.20;99.90;;;;;;4994818;28;20550;-65
2023/03/30 05:35:38;;;;;;;2.38;2.10;;;15.20;99.90;;;;;;4998637;28;20240;-65
2023/03/30 05:38:06;;;;;;;2.28;2.05;;;15.30;99.90;;;;;;5000692;28;20217;-65
2023/03/30 05:40:32;;;;;;;2.85;2.42;;;15.30;99.90;;;;;;4989237;28;20694;-65
2023/03/30 05:42:59;;;;;;;2.50;2.15;;;15.30;99.90;;;;;;4986483;28;20227;-64
2023/03/30 05:45:26;;;;;;;2.40;2.20;;;15.30;99.90;;;;;;4982434;28;20261;-62
2023/03/30 05:47:53;;;;;;;2.65;2.00;;;15.40;99.90;;;;;;4993910;28;20308;-62
2023/03/30 05:50:22;;;;;;;1.80;1.70;;;15.40;99.90;;;;;;4984447;28;20260;-64
2023/03/30 05:52:49;;;;;;;4.05;2.35;;;15.40;99.90;;;;;;4993896;28;20205;-64
2023/03/30 05:55:16;;;;;;;2.20;2.10;;;15.40;99.90;;;;;;4988502;28;20305;-63
2023/03/30 05:57:44;;;;;;;3.20;2.10;;;15.40;99.90;;;;;;4977261;28;20210;-62
2023/03/30 06:00:14;;;;;;;3.30;2.35;;;15.40;99.90;;;;;;4994163;28;20680;-62
2023/03/30 06:02:41;;;;;;;4.55;2.55;;;15.40;99.90;;;;;;4994810;28;20226;-63
2023/03/30 06:05:08;;;;;;;3.45;2.15;;;15.40;99.90;;;;;;4993582;28;20246;-62
2023/03/30 06:07:37;;;;;;;3.30;2.38;;;15.40;99.90;;;;;;4993297;28;20217;-64
2023/03/30 06:10:04;;;;;;;2.67;2.20;;;15.50;99.90;;;;;;4991924;28;20210;-62
2023/03/30 06:12:31;;;;;;;3.97;2.45;;;15.40;99.90;;;;;;4994150;28;20213;-64
2023/03/30 06:15:01;;;;;;;2.70;2.15;;;15.50;99.90;;;;;;4994222;28;20228;-64
2023/03/30 06:17:28;;;;;;;2.50;2.30;;;15.40;99.90;;;;;;4994541;28;20206;-63
2023/03/30 06:19:54;;;;;;;2.50;2.30;;;15.40;99.90;;;;;;4993993;28;20212;-63
2023/03/30 06:22:21;;;;;;;2.72;2.20;;;15.30;99.90;;;;;;4995260;28;20226;-64
2023/03/30 06:24:49;;;;;;;2.72;2.40;;;15.30;99.90;;;;;;4994352;28;20222;-62
2023/03/30 06:27:16;;;;;;;3.30;2.72;;;15.30;99.90;;;;;;4993954;28;20760;-63
2023/03/30 06:29:44;;;;;;;4.45;2.60;;;15.30;99.90;;;;;;4993286;28;20216;-63
2023/03/30 06:32:10;;;;;;;2.80;2.28;;;15.20;99.90;;;;;;4993918;28;20210;-64
2023/03/30 06:34:37;;;;;;;3.55;2.92;;;15.10;99.90;;;;;;4994577;28;20205;-64
2023/03/30 06:37:06;;;;;;;3.92;3.22;;;15.00;99.90;;;;;;4993679;28;20206;-63
2023/03/30 06:39:36;;;;;;;3.05;2.85;;;14.90;99.90;;;;;;4992828;28;20792;-64
2023/03/30 06:42:04;;;;;;;2.95;2.65;;;14.80;99.90;;;;;;4991561;28;20204;-64
2023/03/30 06:44:32;;;;;;;2.90;2.47;;;14.70;99.90;;;;;;4994249;28;20256;-64
2023/03/30 06:46:59;;;;;;;2.50;2.30;;;14.60;99.90;;;;;;4995652;28;20210;-63
2023/03/30 06:49:26;;;;;;;2.58;2.38;;;14.70;99.90;;;;;;4995545;28;20197;-64
2023/03/30 06:51:53;;;;;;;2.40;2.20;;;14.60;99.90;;;;;;4980799;28;20207;-65
2023/03/30 06:54:20;;;;;;;3.30;2.25;;;14.60;99.90;;;;;;4982126;28;20335;-62
2023/03/30 06:56:47;;;;;;;2.60;2.40;;;14.60;99.90;;;;;;4985962;28;20217;-64
2023/03/30 06:59:15;;;;;;;1.60;1.50;;;14.70;99.90;;;;;;4985134;28;20301;-66
2023/03/30 07:01:43;;;;;;;2.30;1.73;;;14.70;99.90;;;;;;5005588;28;20241;-68
2023/03/30 07:04:10;;;;;;;2.78;2.25;;;14.70;99.90;;;;;;5009923;28;20228;-65
2023/03/30 07:06:37;;;;;;;1.80;1.70;;;14.70;99.90;;;;;;4996618;28;20221;-64
2023/03/30 07:09:04;;;;;;;1.70;1.60;;;14.70;99.90;;;;;;4993492;28;20206;-62
2023/03/30 07:11:31;;;;;;;2.20;2.00;;;14.70;99.90;;;;;;4982655;28;20321;-67
2023/03/30 07:14:00;;;;;;;1.83;1.70;;;14.70;99.90;;;;;;4992734;28;20302;-65
2023/03/30 07:16:28;;;;;;;2.08;1.88;;;14.60;99.90;;;;;;4983848;28;20233;-64
2023/03/30 07:18:55;;;;;;;2.03;1.92;;;14.50;99.90;;;;;;4976148;28;20323;-63
2023/03/30 07:21:22;;;;;;;2.28;2.08;;;14.40;99.90;;;;;;4984284;28;20209;-64
2023/03/30 07:23:49;;;;;;;2.60;2.22;;;14.30;99.90;;;;;;4993221;28;20253;-63
2023/03/30 07:26:16;;;;;;;2.60;1.90;;;14.20;99.90;;;;;;4992791;28;20699;-65
2023/03/30 07:28:44;;;;;;;2.33;1.90;;;14.20;99.90;;;;;;4992528;28;20684;-64
2023/03/30 07:31:13;;;;;;;2.63;2.42;;;14.30;99.90;;;;;;4983501;28;20753;-63
2023/03/30 07:33:41;;;;;;;3.45;2.50;;;14.20;99.90;;;;;;4973848;28;20213;-64
2023/03/30 07:36:09;;;;;;;2.45;2.25;;;14.20;99.90;;;;;;4973462;28;20281;-65
2023/03/30 07:38:36;;;;;;;2.97;2.42;;;14.30;99.90;;;;;;4973873;28;20206;-64
2023/03/30 07:41:07;;;;;;;2.30;2.10;;;14.30;99.90;;;;;;4972920;28;20211;-64
2023/03/30 07:43:34;;;;;;;2.17;1.85;;;14.30;99.90;;;;;;4972966;28;21812;-65
2023/03/30 07:46:01;;;;;;;2.28;2.08;;;14.30;99.90;;;;;;4973248;28;20226;-65
2023/03/30 07:48:28;;;;;;;2.90;2.22;;;14.30;99.90;;;;;;4973409;28;20266;-65
2023/03/30 07:51:01;;;;;;;3.17;2.55;;;14.20;99.90;;;;;;4972330;28;20221;-63
2023/03/30 07:53:28;;;;;;;3.47;2.60;;;14.30;99.90;;;;;;4973310;28;20956;-64
2023/03/30 07:55:56;;;;;;;2.78;2.45;;;14.20;99.90;;;;;;4973213;28;20241;-63
2023/03/30 07:58:23;;;;;;;3.08;2.42;;;14.20;99.90;;;;;;4974821;28;20271;-65
2023/03/30 08:00:50;;;;;;;2.88;2.60;;;14.20;99.90;;;;;;4992741;28;20233;-63
2023/03/30 08:03:17;;;;;;;3.03;2.60;;;14.00;99.90;;;;;;4992542;28;20221;-64
2023/03/30 08:05:45;;;;;;;3.33;2.47;;;14.00;99.90;;;;;;4992893;28;20940;-65
2023/03/30 08:08:13;;;;;;;2.75;2.55;;;14.00;99.90;;;;;;4992763;28;20584;-64
2023/03/30 08:10:40;;;;;;;2.35;2.15;;;13.90;99.90;;;;;;4991223;28;20209;-64
2023/03/30 08:13:07;;;;;;;3.10;2.75;;;13.90;99.90;;;;;;4991191;28;20205;-64
2023/03/30 08:15:33;;;;;;;2.50;2.30;;;13.90;99.90;;;;;;4992285;28;20226;-63
2023/03/30 08:18:03;;;;;;;2.10;2.00;;;13.80;99.90;;;;;;4992063;28;20634;-65
2023/03/30 08:20:30;;;;;;;2.30;2.10;;;13.80;99.90;;;;;;4991711;28;20275;-63
2023/03/30 08:22:56;;;;;;;1.95;1.85;;;13.80;99.90;;;;;;4994799;28;20269;-65
2023/03/30 08:25:26;;;;;;;2.10;1.92;;;13.80;99.90;;;;;;4992859;28;20226;-64
2023/03/30 08:27:52;;;;;;;2.92;2.53;;;13.60;99.90;;;;;;4992825;28;20305;-64
2023/03/30 08:30:19;;;;;;;2.20;2.00;;;13.80;99.90;;;;;;4991188;28;20835;-63
2023/03/30 08:32:46;;;;;;;2.10;1.90;;;13.70;99.90;;;;;;4992346;28;20692;-65
2023/03/30 08:35:14;;;;;;;2.03;1.92;;;13.70;99.90;;;;;;4992221;28;20236;-65
2023/03/30 08:37:40;;;;;;;1.98;1.77;;;13.70;99.90;;;;;;4991951;28;20209;-64
2023/03/30 08:40:10;;;;;;;1.70;1.58;;;13.70;99.90;;;;;;4991973;28;20208;-64
2023/03/30 08:43:04;;;;;;;2.80;1.90;;;13.70;99.90;;;;;;4991974;28;20252;-64
2023/03/30 08:45:37;;;;;;;1.75;1.60;;;13.80;99.90;;;;;;4989240;28;20233;-65
2023/03/30 08:48:07;;;;;;;1.20;1.20;;;13.80;99.90;;;;;;4996168;28;20202;-64
2023/03/30 08:50:36;;;;;;;1.70;1.60;;;13.90;99.90;;;;;;4992796;28;20209;-64
2023/03/30 08:53:04;;;;;;;1.70;1.48;;;13.90;99.90;;;;;;4991890;28;20296;-64
2023/03/30 08:55:36;;;;;;;1.30;1.20;;;14.00;99.90;;;;;;4994834;28;20783;-65
2023/03/30 08:58:12;;;;;;;1.52;1.42;;;14.00;99.90;;;;;;4996338;28;20557;-65
2023/03/30 09:00:44;;;;;;;1.50;1.40;;;14.10;99.90;;;;;;4994553;28;20209;-63
2023/03/30 09:03:18;;;;;;;1.77;1.33;;;14.30;99.90;;;;;;4994457;28;20229;-64
2023/03/30 09:05:51;;;;;;;1.60;1.50;;;14.30;99.90;;;;;;4994570;28;20344;-65
2023/03/30 09:08:21;;;;;;;2.28;1.40;;;14.40;99.90;;;;;;4995078;28;20209;-64
2023/03/30 09:10:52;;;;;;;1.13;1.13;;;14.50;99.90;;;;;;4994676;28;20197;-65
2023/03/30 09:13:23;;;;;;;1.30;1.20;;;14.40;99.90;;;;;;4993914;28;20201;-65
2023/03/30 09:15:55;;;;;;;1.42;1.33;;;14.40;99.90;;;;;;4994383;28;20750;-64
2023/03/30 09:18:26;;;;;;;1.00;1.00;;;14.50;99.90;;;;;;4994467;28;20272;-63
2023/03/30 09:20:57;;;;;;;1.20;1.10;;;14.50;99.90;;;;;;4993837;28;20206;-65
2023/03/30 09:23:24;;;;;;;1.13;1.13;;;14.60;99.90;;;;;;4995048;28;20218;-65
2023/03/30 09:26:01;;;;;;;1.10;1.10;;;14.60;99.90;;;;;;4994359;28;20230;-65
2023/03/30 09:28:34;;;;;;;1.30;1.20;;;14.50;99.90;;;;;;4996615;28;20201;-65
2023/03/30 09:31:04;;;;;;;1.38;1.27;;;14.50;99.90;;;;;;5005208;28;20226;-64
2023/03/30 09:33:38;;;;;;;1.33;1.20;;;14.60;99.90;;;;;;4997864;28;20202;-63
2023/03/30 09:36:15;;;;;;;1.50;1.40;;;14.60;99.90;;;;;;4996374;28;20221;-63
2023/03/30 09:38:43;;;;;;;1.25;1.20;;;14.50;99.90;;;;;;4999102;28;20604;-64
2023/03/30 09:41:38;;;;;;;1.60;1.50;;;14.50;99.90;;;;;;4994858;28;20213;-64
2023/03/30 09:44:13;;;;;;;1.40;1.30;;;14.50;99.90;;;;;;4995198;28;20221;-63
2023/03/30 09:46:40;;;;;;;1.50;1.40;;;14.50;99.90;;;;;;4995406;28;20225;-65
2023/03/30 09:49:15;;;;;;;1.33;1.23;;;14.50;99.90;;;;;;4995362;28;20216;-65
2023/03/30 09:51:54;;;;;;;1.60;1.50;;;14.40;99.90;;;;;;4997349;28;20283;-64
2023/03/30 09:54:22;;;;;;;1.38;1.30;;;14.40;99.90;;;;;;4998777;28;20245;-65
2023/03/30 09:56:50;;;;;;;1.40;1.30;;;14.40;99.90;;;;;;4998776;28;20202;-65
2023/03/30 09:59:28;;;;;;;1.50;1.40;;;14.40;99.90;;;;;;4997717;28;20206;-63
2023/03/30 10:02:09;;;;;;;1.70;1.60;;;14.40;99.90;;;;;;4996906;28;20209;-65
2023/03/30 10:05:00;;;;;;;1.33;1.23;;;14.40;99.90;;;;;;4994220;28;20329;-63
2023/03/30 10:07:30;;;;;;;1.40;1.30;;;14.40;99.90;;;;;;4994751;28;20210;-65
2023/03/30 10:10:00;;;;;;;1.77;1.60;;;14.30;99.90;;;;;;4994821;28;20293;-62
2023/03/30 10:12:29;;;;;;;1.98;1.65;;;14.40;99.90;;;;;;4994261;28;20547;-64
2023/03/30 10:15:01;;;;;;;1.40;1.30;;;14.30;99.90;;;;;;4994663;28;20233;-65
2023/03/30 10:17:28;;;;;;;2.17;1.60;;;14.20;99.90;;;;;;4994131;28;20206;-64
2023/03/30 10:20:22;;;;;;;1.50;1.40;;;14.20;99.90;;;;;;4994378;28;20218;-64
2023/03/30 10:22:51;;;;;;;1.67;1.50;;;14.20;99.90;;;;;;4995137;28;20214;-65
2023/03/30 10:25:22;;;;;;;1.40;1.30;;;14.30;99.90;;;;;;5004712;28;20288;-65
2023/03/30 10:27:52;;;;;;;1.60;1.50;;;14.30;99.90;;;;;;5013253;28;20191;-65
2023/03/30 10:30:24;;;;;;;1.60;1.50;;;14.30;99.90;;;;;;5003095;28;20269;-66
2023/03/30 10:32:53;;;;;;;1.50;1.40;;;14.40;99.90;;;;;;5004529;28;20245;-65
2023/03/30 10:35:23;;;;;;;1.70;1.60;;;14.40;99.90;;;;;;5004005;28;20294;-64
2023/03/30 10:37:52;;;;;;;1.70;1.60;;;14.40;99.90;;;;;;5003715;28;20272;-65
2023/03/30 10:40:21;;;;;;;1.63;1.30;;;14.40;99.90;;;;;;5000296;28;20210;-64
2023/03/30 10:42:54;;;;;;;1.33;1.20;;;14.40;99.90;;;;;;4997201;28;20231;-64
2023/03/30 10:45:28;;;;;;;1.50;1.40;;;14.50;99.90;;;;;;4983060;28;20284;-64
2023/03/30 10:48:15;;;;;;;1.77;1.60;;;14.40;99.90;;;;;;4993902;28;20269;-64
2023/03/30 10:50:49;;;;;;;1.80;1.70;;;14.30;99.90;;;;;;4995100;28;20672;-64
2023/03/30 10:53:27;;;;;;;1.90;1.80;;;14.30;99.90;;;;;;4993057;28;20216;-63
2023/03/30 10:56:03;;;;;;;2.10;1.90;;;14.30;99.90;;;;;;4991668;28;20335;-64
2023/03/30 10:58:43;;;;;;;2.53;1.52;;;14.30;99.90;;;;;;4992418;28;20216;-65
2023/03/30 11:01:21;;;;;;;1.75;1.65;;;14.30;99.90;;;;;;4993962;28;20232;-65
2023/03/30 11:03:54;;;;;;;1.90;1.60;;;14.40;99.90;;;;;;4991086;28;20222;-64
2023/03/30 11:06:26;;;;;;;1.83;1.65;;;14.40;99.90;;;;;;4992020;28;20282;-65
2023/03/30 11:08:56;;;;;;;1.65;1.55;;;14.40;99.90;;;;;;4998752;28;20204;-65
2023/03/30 11:11:31;;;;;;;1.70;1.60;;;14.50;99.90;;;;;;4994427;28;20224;-66
2023/03/30 11:14:01;;;;;;;2.00;1.80;;;14.50;99.90;;;;;;4988318;28;20672;-65
2023/03/30 11:16:39;;;;;;;1.60;1.50;;;14.50;99.90;;;;;;4988525;28;20245;-64
2023/03/30 11:19:15;;;;;;;2.00;1.80;;;14.50;99.90;;;;;;4988942;28;20209;-65
2023/03/30 11:21:49;;;;;;;1.80;1.70;;;14.50;99.90;;;;;;4990150;28;20870;-64
2023/03/30 11:24:19;;;;;;;2.15;2.00;;;14.60;99.90;;;;;;4988967;28;20240;-63
2023/03/30 11:26:53;;;;;;;2.72;1.80;;;14.90;99.90;;;;;;4992134;28;20641;-63
2023/03/30 11:29:30;;;;;;;1.43;1.33;;;14.80;99.90;;;;;;4991166;28;20210;-65
2023/03/30 11:32:10;;;;;;;1.52;1.42;;;14.90;99.90;;;;;;4990241;28;20220;-64
2023/03/30 11:34:48;;;;;;;1.90;1.75;;;15.10;99.90;;;;;;4989547;28;20201;-64
2023/03/30 11:37:23;;;;;;;1.33;1.33;;;15.20;99.90;;;;;;4990323;28;20676;-64
2023/03/30 11:39:55;;;;;;;1.75;1.65;;;15.40;99.90;;;;;;4989601;28;20205;-64
2023/03/30 11:42:26;;;;;;;2.15;1.60;;;15.50;99.90;;;;;;4988867;28;20241;-64
2023/03/30 11:44:53;;;;;;;1.60;1.50;;;15.60;99.90;;;;;;4989479;28;20234;-65
2023/03/30 11:47:42;;;;;;;1.50;1.40;;;15.70;99.90;;;;;;4989523;28;20300;-64
2023/03/30 11:50:23;;;;;;;1.65;1.55;;;15.90;99.90;;;;;;4991076;28;20665;-63
2023/03/30 11:52:57;;;;;;;2.10;1.60;;;15.90;99.90;;;;;;4989718;28;20212;-63
2023/03/30 11:55:38;;;;;;;1.60;1.50;;;15.90;99.90;;;;;;4989369;28;20217;-65
2023/03/30 11:58:14;;;;;;;1.40;1.30;;;15.90;99.90;;;;;;4990392;28;20212;-64
2023/03/30 12:00:49;;;;;;;1.60;1.50;;;15.90;99.90;;;;;;4996395;28;20225;-65
2023/03/30 12:03:28;;;;;;;1.30;1.27;;;15.80;99.90;;;;;;4997342;28;20205;-65
2023/03/30 12:06:00;;;;;;;1.40;1.30;;;15.70;99.90;;;;;;4990085;28;20300;-63
2023/03/30 12:08:52;;;;;;;1.77;1.67;;;15.50;99.90;;;;;;4989915;28;20593;-64
2023/03/30 12:11:27;;;;;;;1.77;1.67;;;15.40;99.90;;;;;;4989215;28;20214;-64
2023/03/30 12:13:54;;;;;;;1.50;1.40;;;15.30;99.90;;;;;;4987732;28;20209;-63
2023/03/30 12:16:29;;;;;;;1.40;1.30;;;15.30;99.90;;;;;;4989803;28;20702;-63
2023/03/30 12:19:11;;;;;;;1.48;1.33;;;15.30;99.90;;;;;;4992760;28;20300;-66
2023/03/30 12:21:43;;;;;;;1.50;1.40;;;15.30;99.90;;;;;;4988416;28;20224;-65
2023/03/30 12:24:17;;;;;;;1.45;1.35;;;15.40;99.90;;;;;;4991062;28;20206;-66
2023/03/30 12:26:44;;;;;;;1.45;1.35;;;15.60;99.90;;;;;;4990626;28;20232;-66
2023/03/30 12:29:14;;;;;;;1.93;1.47;;;15.50;99.90;;;;;;4989461;28;20206;-63
2023/03/30 12:32:05;;;;;;;2.03;1.38;;;15.40;99.90;;;;;;4991361;28;20637;-65
2023/03/30 12:34:35;;;;;;;1.27;1.20;;;15.40;99.90;;;;;;4971796;28;20776;-64
2023/03/30 12:37:05;;;;;;;1.70;1.60;;;15.40;99.90;;;;;;4972645;28;20558;-64
2023/03/30 12:39:36;;;;;;;1.40;1.30;;;15.80;99.90;;;;;;4971567;28;20210;-64
2023/03/30 12:42:05;;;;;;;1.77;1.67;;;15.70;99.90;;;;;;4971296;28;20206;-63
2023/03/30 12:44:49;;;;;;;2.05;1.83;;;16.10;99.90;;;;;;4971171;28;20627;-64
2023/03/30 12:47:38;;;;;;;1.40;1.30;;;16.50;99.90;;;;;;4971828;28;20206;-64
2023/03/30 12:50:17;;;;;;;1.70;1.60;;;16.80;99.90;;;;;;4971394;28;20608;-63
2023/03/30 12:52:57;;;;;;;1.50;1.40;;;16.70;99.90;;;;;;4971892;28;20289;-66
2023/03/30 12:55:36;;;;;;;1.58;1.48;;;16.90;99.90;;;;;;4971958;28;20690;-65
2023/03/30 12:58:25;;;;;;;1.38;1.27;;;17.10;99.90;;;;;;4971937;28;20560;-64
2023/03/30 13:01:10;;;;;;;1.10;1.10;;;17.10;99.90;;;;;;4971556;28;20211;-64
2023/03/30 13:03:40;;;;;;;1.47;1.37;;;16.90;99.90;;;;;;4973036;28;20210;-65
2023/03/30 13:06:20;;;;;;;1.40;1.30;;;16.70;99.90;;;;;;4979840;28;20234;-64
2023/03/30 13:08:47;;;;;;;1.52;1.42;;;16.70;99.90;;;;;;4977526;28;20719;-64